SIA37 KLAX-WSSS
Flight info
| Callsign | SIA37 |
|---|---|
| Flight time | N/A |
| Altitude | 34000 |
| Route | SUMMR2 MCKEY DCT LIBBO DCT BRINY DCT ALCOA DCT 40N130W 43N140W 45N150W 47N160W/N0497F360 48N170W 46N180E 41N170E/N0486F380 35N160E 29N150E/N0485F400 24N140E DCT KEITH DCT 19N130E DCT OMDOB DCT JOM M767 TOMAN KARTO2B |
| Aircraft | A359/H-SDE2E3GHIJ3J4J5LM1ORWXY/LB1D1 |
Departure
| Time | 2026-05-07 15:07 |
|---|---|
| Airport | Los Angeles International Airport (KLAX) |
Arrival
| Time | N/A |
|---|---|
| Airport | Singapore Changi Airport (WSSS) |
| Time | Latitude | Longitude | Altitude | Speed | Heading |
|---|---|---|---|---|---|
| 2026-05-07 13:56 | 33.94177 | -118.41096 | 100 ft | 0 kts | 82° |
| 2026-05-07 14:48 | 33.94177 | -118.41098 | 99 ft | 2 kts | 83° |
| 2026-05-07 14:48 | 33.94174 | -118.41129 | 97 ft | 4 kts | 83° |
| 2026-05-07 14:49 | 33.94171 | -118.41155 | 96 ft | 1 kts | 83° |
| 2026-05-07 14:49 | 33.94169 | -118.41180 | 101 ft | 4 kts | 80° |
| 2026-05-07 14:49 | 33.94161 | -118.41200 | 99 ft | 4 kts | 17° |
| 2026-05-07 14:49 | 33.94137 | -118.41202 | 98 ft | 4 kts | 355° |
| 2026-05-07 14:50 | 33.94110 | -118.41199 | 99 ft | 4 kts | 353° |
| 2026-05-07 14:50 | 33.94094 | -118.41197 | 98 ft | 0 kts | 353° |
| 2026-05-07 14:58 | 33.94096 | -118.41197 | 99 ft | 2 kts | 354° |
| 2026-05-07 14:58 | 33.94102 | -118.41198 | 101 ft | 0 kts | 354° |
| 2026-05-07 14:59 | 33.94103 | -118.41198 | 101 ft | 0 kts | 354° |
| 2026-05-07 14:59 | 33.94106 | -118.41198 | 101 ft | 2 kts | 354° |
| 2026-05-07 14:59 | 33.94136 | -118.41202 | 100 ft | 7 kts | 353° |
| 2026-05-07 14:59 | 33.94194 | -118.41210 | 101 ft | 10 kts | 353° |
| 2026-05-07 15:00 | 33.94275 | -118.41222 | 102 ft | 11 kts | 353° |
| 2026-05-07 15:00 | 33.94340 | -118.41232 | 101 ft | 7 kts | 353° |
| 2026-05-07 15:00 | 33.94399 | -118.41240 | 100 ft | 10 kts | 353° |
| 2026-05-07 15:00 | 33.94471 | -118.41250 | 100 ft | 9 kts | 353° |
| 2026-05-07 15:01 | 33.94547 | -118.41262 | 101 ft | 7 kts | 353° |
| 2026-05-07 15:01 | 33.94600 | -118.41270 | 101 ft | 6 kts | 353° |
| 2026-05-07 15:01 | 33.94653 | -118.41278 | 100 ft | 9 kts | 353° |
| 2026-05-07 15:01 | 33.94716 | -118.41288 | 101 ft | 10 kts | 353° |
| 2026-05-07 15:02 | 33.94767 | -118.41284 | 107 ft | 6 kts | 25° |
| 2026-05-07 15:02 | 33.94792 | -118.41239 | 103 ft | 8 kts | 69° |
| 2026-05-07 15:02 | 33.94806 | -118.41157 | 103 ft | 12 kts | 83° |
| 2026-05-07 15:02 | 33.94814 | -118.41079 | 102 ft | 7 kts | 83° |
| 2026-05-07 15:03 | 33.94822 | -118.41007 | 101 ft | 10 kts | 83° |
| 2026-05-07 15:03 | 33.94831 | -118.40921 | 104 ft | 11 kts | 83° |
| 2026-05-07 15:03 | 33.94842 | -118.40817 | 100 ft | 14 kts | 83° |
| 2026-05-07 15:03 | 33.94853 | -118.40710 | 100 ft | 14 kts | 83° |
| 2026-05-07 15:04 | 33.94865 | -118.40592 | 101 ft | 11 kts | 83° |
| 2026-05-07 15:04 | 33.94876 | -118.40483 | 103 ft | 11 kts | 84° |
| 2026-05-07 15:04 | 33.94886 | -118.40379 | 100 ft | 14 kts | 84° |
| 2026-05-07 15:04 | 33.94895 | -118.40291 | 100 ft | 9 kts | 83° |
| 2026-05-07 15:05 | 33.94901 | -118.40230 | 103 ft | 0 kts | 83° |
| 2026-05-07 15:05 | 33.94901 | -118.40229 | 103 ft | 0 kts | 83° |
| 2026-05-07 15:05 | 33.94907 | -118.40209 | 104 ft | 5 kts | 64° |
| 2026-05-07 15:05 | 33.94933 | -118.40185 | 104 ft | 4 kts | 22° |
| 2026-05-07 15:06 | 33.94969 | -118.40179 | 103 ft | 6 kts | 355° |
| 2026-05-07 15:06 | 33.95007 | -118.40213 | 105 ft | 8 kts | 299° |
| 2026-05-07 15:06 | 33.95008 | -118.40261 | 105 ft | 1 kts | 260° |
| 2026-05-07 15:06 | 33.95000 | -118.40320 | 104 ft | 24 kts | 260° |
| 2026-05-07 15:07 | 33.94946 | -118.40803 | 106 ft | 93 kts | 264° |
| 2026-05-07 15:07 | 33.94847 | -118.41841 | 104 ft | 154 kts | 263° |
| 2026-05-07 15:07 | 33.94689 | -118.43295 | 400 ft | 184 kts | 262° |
| 2026-05-07 15:07 | 33.94528 | -118.44881 | 904 ft | 206 kts | 263° |
| 2026-05-07 15:08 | 33.94351 | -118.46630 | 1661 ft | 209 kts | 264° |
| 2026-05-07 15:08 | 33.94246 | -118.48399 | 2396 ft | 215 kts | 268° |
| 2026-05-07 15:08 | 33.94207 | -118.50252 | 2628 ft | 229 kts | 269° |
| 2026-05-07 15:08 | 33.94143 | -118.52240 | 2779 ft | 247 kts | 266° |
| 2026-05-07 15:09 | 33.93983 | -118.54366 | 3043 ft | 259 kts | 265° |
| 2026-05-07 15:09 | 33.93801 | -118.56541 | 3473 ft | 264 kts | 265° |
| 2026-05-07 15:09 | 33.93620 | -118.58756 | 3931 ft | 267 kts | 265° |
| 2026-05-07 15:09 | 33.93442 | -118.60964 | 4388 ft | 270 kts | 265° |
| 2026-05-07 15:10 | 33.93262 | -118.63223 | 4853 ft | 272 kts | 265° |
| 2026-05-07 15:10 | 33.93083 | -118.65503 | 5308 ft | 275 kts | 265° |
| 2026-05-07 15:10 | 33.92905 | -118.67817 | 5746 ft | 278 kts | 265° |
| 2026-05-07 15:10 | 33.92724 | -118.70135 | 6205 ft | 281 kts | 265° |
| 2026-05-07 15:11 | 33.92540 | -118.72496 | 6666 ft | 283 kts | 265° |
| 2026-05-07 15:11 | 33.92354 | -118.74868 | 7126 ft | 285 kts | 265° |
| 2026-05-07 15:11 | 33.92167 | -118.77256 | 7598 ft | 288 kts | 265° |
| 2026-05-07 15:11 | 33.91978 | -118.79672 | 8099 ft | 291 kts | 265° |
| 2026-05-07 15:12 | 33.91788 | -118.82110 | 8611 ft | 294 kts | 265° |
| 2026-05-07 15:12 | 33.91732 | -118.84587 | 9139 ft | 297 kts | 272° |
| 2026-05-07 15:12 | 33.91795 | -118.87048 | 9649 ft | 299 kts | 273° |
| 2026-05-07 15:12 | 33.91876 | -118.89572 | 10139 ft | 303 kts | 273° |
| 2026-05-07 15:13 | 33.91958 | -118.92161 | 10380 ft | 316 kts | 273° |
| 2026-05-07 15:13 | 33.92040 | -118.94863 | 10576 ft | 330 kts | 273° |
| 2026-05-07 15:13 | 33.92124 | -118.97676 | 10775 ft | 344 kts | 273° |
| 2026-05-07 15:13 | 33.92278 | -119.00617 | 10962 ft | 356 kts | 280° |
| 2026-05-07 15:14 | 33.93121 | -119.03455 | 11156 ft | 365 kts | 301° |
| 2026-05-07 15:14 | 33.94457 | -119.06107 | 11361 ft | 376 kts | 304° |
| 2026-05-07 15:14 | 33.95876 | -119.08794 | 11616 ft | 385 kts | 304° |
| 2026-05-07 15:14 | 33.97315 | -119.11535 | 12015 ft | 389 kts | 303° |
| 2026-05-07 15:15 | 33.98754 | -119.14299 | 12457 ft | 391 kts | 303° |
| 2026-05-07 15:15 | 34.00220 | -119.17064 | 12905 ft | 392 kts | 307° |
| 2026-05-07 15:15 | 34.02027 | -119.19464 | 13348 ft | 391 kts | 322° |
| 2026-05-07 15:15 | 34.04204 | -119.21450 | 13776 ft | 393 kts | 326° |
| 2026-05-07 15:16 | 34.06449 | -119.23362 | 14164 ft | 395 kts | 326° |
| 2026-05-07 15:16 | 34.08692 | -119.25268 | 14555 ft | 396 kts | 326° |
| 2026-05-07 15:16 | 34.10950 | -119.27197 | 14980 ft | 397 kts | 326° |
| 2026-05-07 15:16 | 34.13184 | -119.29111 | 15364 ft | 399 kts | 326° |
| 2026-05-07 15:17 | 34.15457 | -119.31064 | 15730 ft | 401 kts | 326° |
| 2026-05-07 15:17 | 34.17744 | -119.33032 | 16115 ft | 403 kts | 326° |
| 2026-05-07 15:17 | 34.20035 | -119.35006 | 16483 ft | 405 kts | 326° |
| 2026-05-07 15:17 | 34.22336 | -119.36991 | 16845 ft | 408 kts | 326° |
| 2026-05-07 15:18 | 34.24652 | -119.38989 | 17227 ft | 410 kts | 326° |
| 2026-05-07 15:18 | 34.26949 | -119.40975 | 17607 ft | 412 kts | 326° |
| 2026-05-07 15:18 | 34.29285 | -119.42994 | 17994 ft | 413 kts | 326° |
| 2026-05-07 15:18 | 34.31636 | -119.45028 | 18364 ft | 416 kts | 326° |
| 2026-05-07 15:19 | 34.33992 | -119.47068 | 18694 ft | 418 kts | 326° |
| 2026-05-07 15:19 | 34.36362 | -119.49122 | 19046 ft | 419 kts | 326° |
| 2026-05-07 15:19 | 34.38738 | -119.51183 | 19394 ft | 421 kts | 326° |
| 2026-05-07 15:19 | 34.41042 | -119.53405 | 19737 ft | 425 kts | 319° |
| 2026-05-07 15:20 | 34.43091 | -119.56011 | 20066 ft | 428 kts | 313° |
| 2026-05-07 15:20 | 34.45015 | -119.58721 | 20425 ft | 430 kts | 312° |
| 2026-05-07 15:20 | 34.46961 | -119.61495 | 20736 ft | 432 kts | 312° |
| 2026-05-07 15:20 | 34.48913 | -119.64277 | 21075 ft | 434 kts | 312° |
| 2026-05-07 15:21 | 34.50874 | -119.67068 | 21452 ft | 435 kts | 312° |
| 2026-05-07 15:21 | 34.52849 | -119.69882 | 21812 ft | 437 kts | 312° |
| 2026-05-07 15:21 | 34.54827 | -119.72694 | 22156 ft | 439 kts | 312° |
| 2026-05-07 15:21 | 34.56821 | -119.75533 | 22518 ft | 441 kts | 312° |
| 2026-05-07 15:22 | 34.58817 | -119.78377 | 22891 ft | 443 kts | 312° |
| 2026-05-07 15:22 | 34.60820 | -119.81232 | 23065 ft | 445 kts | 312° |
| 2026-05-07 15:22 | 34.62823 | -119.84091 | 23078 ft | 445 kts | 312° |
| 2026-05-07 15:22 | 34.64829 | -119.86956 | 23080 ft | 445 kts | 312° |
| 2026-05-07 15:23 | 34.66839 | -119.89828 | 23150 ft | 446 kts | 311° |
| 2026-05-07 15:23 | 34.68832 | -119.92678 | 23488 ft | 448 kts | 311° |
| 2026-05-07 15:23 | 34.70845 | -119.95560 | 23855 ft | 449 kts | 311° |
| 2026-05-07 15:23 | 34.72874 | -119.98467 | 24167 ft | 451 kts | 312° |
| 2026-05-07 15:24 | 34.74903 | -120.01376 | 24515 ft | 452 kts | 311° |
| 2026-05-07 15:24 | 34.76947 | -120.04309 | 24822 ft | 454 kts | 311° |
| 2026-05-07 15:24 | 34.78992 | -120.07246 | 25151 ft | 456 kts | 311° |
| 2026-05-07 15:24 | 34.81046 | -120.10198 | 25479 ft | 457 kts | 311° |
| 2026-05-07 15:25 | 34.83102 | -120.13156 | 25784 ft | 459 kts | 311° |